sensor_id;sensor_type;location;lat;lon;timestamp;P1;durP1;ratioP1;P2;durP2;ratioP2
16826;SDS011;8530;49.540;8.576;2023-02-11T00:00:31;49.20;;;34.10;;
16826;SDS011;8530;49.540;8.576;2023-02-11T00:02:57;49.23;;;32.90;;
16826;SDS011;8530;49.540;8.576;2023-02-11T00:05:24;46.73;;;32.77;;
16826;SDS011;8530;49.540;8.576;2023-02-11T00:07:51;43.63;;;30.73;;
16826;SDS011;8530;49.540;8.576;2023-02-11T00:10:18;47.80;;;31.70;;
16826;SDS011;8530;49.540;8.576;2023-02-11T00:12:45;46.10;;;31.73;;
16826;SDS011;8530;49.540;8.576;2023-02-11T00:15:13;51.27;;;34.43;;
16826;SDS011;8530;49.540;8.576;2023-02-11T00:17:39;46.10;;;29.93;;
16826;SDS011;8530;49.540;8.576;2023-02-11T00:20:06;49.00;;;32.50;;
16826;SDS011;8530;49.540;8.576;2023-02-11T00:22:34;52.67;;;32.30;;
16826;SDS011;8530;49.540;8.576;2023-02-11T00:25:00;45.53;;;29.50;;
16826;SDS011;8530;49.540;8.576;2023-02-11T00:27:27;45.57;;;29.33;;
16826;SDS011;8530;49.540;8.576;2023-02-11T00:29:54;49.67;;;31.20;;
16826;SDS011;8530;49.540;8.576;2023-02-11T00:32:23;50.30;;;29.20;;
16826;SDS011;8530;49.540;8.576;2023-02-11T00:34:50;42.77;;;31.23;;
16826;SDS011;8530;49.540;8.576;2023-02-11T00:37:19;47.47;;;30.63;;
16826;SDS011;8530;49.540;8.576;2023-02-11T00:39:46;47.07;;;30.30;;
16826;SDS011;8530;49.540;8.576;2023-02-11T00:42:14;48.20;;;30.50;;
16826;SDS011;8530;49.540;8.576;2023-02-11T00:44:41;43.03;;;28.93;;
16826;SDS011;8530;49.540;8.576;2023-02-11T00:47:08;49.50;;;31.57;;
16826;SDS011;8530;49.540;8.576;2023-02-11T00:49:36;48.00;;;32.50;;
16826;SDS011;8530;49.540;8.576;2023-02-11T00:52:04;46.77;;;29.87;;
16826;SDS011;8530;49.540;8.576;2023-02-11T00:54:30;48.87;;;30.73;;
16826;SDS011;8530;49.540;8.576;2023-02-11T00:56:57;48.93;;;31.30;;
16826;SDS011;8530;49.540;8.576;2023-02-11T00:59:24;52.33;;;30.37;;
16826;SDS011;8530;49.540;8.576;2023-02-11T01:01:51;44.47;;;30.30;;
16826;SDS011;8530;49.540;8.576;2023-02-11T01:04:17;48.47;;;29.57;;
16826;SDS011;8530;49.540;8.576;2023-02-11T01:06:45;42.80;;;29.93;;
16826;SDS011;8530;49.540;8.576;2023-02-11T01:09:12;45.87;;;31.57;;
16826;SDS011;8530;49.540;8.576;2023-02-11T01:11:39;53.17;;;32.63;;
16826;SDS011;8530;49.540;8.576;2023-02-11T01:14:05;57.80;;;32.40;;
16826;SDS011;8530;49.540;8.576;2023-02-11T01:16:32;48.83;;;29.37;;
16826;SDS011;8530;49.540;8.576;2023-02-11T01:18:59;51.93;;;32.67;;
16826;SDS011;8530;49.540;8.576;2023-02-11T01:21:26;44.70;;;31.33;;
16826;SDS011;8530;49.540;8.576;2023-02-11T01:23:54;46.20;;;30.37;;
16826;SDS011;8530;49.540;8.576;2023-02-11T01:26:21;38.07;;;26.30;;
16826;SDS011;8530;49.540;8.576;2023-02-11T01:28:47;54.47;;;31.30;;
16826;SDS011;8530;49.540;8.576;2023-02-11T01:31:14;48.50;;;30.70;;
16826;SDS011;8530;49.540;8.576;2023-02-11T01:33:41;48.00;;;30.53;;
16826;SDS011;8530;49.540;8.576;2023-02-11T01:36:10;44.20;;;30.40;;
16826;SDS011;8530;49.540;8.576;2023-02-11T01:38:37;44.07;;;28.73;;
16826;SDS011;8530;49.540;8.576;2023-02-11T01:41:06;47.73;;;28.63;;
16826;SDS011;8530;49.540;8.576;2023-02-11T01:43:35;44.67;;;31.33;;
16826;SDS011;8530;49.540;8.576;2023-02-11T01:46:11;63.20;;;29.83;;
16826;SDS011;8530;49.540;8.576;2023-02-11T01:48:46;48.93;;;32.27;;
16826;SDS011;8530;49.540;8.576;2023-02-11T01:51:16;43.03;;;28.40;;
16826;SDS011;8530;49.540;8.576;2023-02-11T01:53:46;43.70;;;29.13;;
16826;SDS011;8530;49.540;8.576;2023-02-11T01:56:33;39.80;;;29.13;;
16826;SDS011;8530;49.540;8.576;2023-02-11T01:59:23;45.97;;;28.63;;
16826;SDS011;8530;49.540;8.576;2023-02-11T02:01:56;50.10;;;32.07;;
16826;SDS011;8530;49.540;8.576;2023-02-11T02:04:26;44.63;;;29.13;;
16826;SDS011;8530;49.540;8.576;2023-02-11T02:06:58;53.00;;;30.03;;
16826;SDS011;8530;49.540;8.576;2023-02-11T02:09:28;43.83;;;30.57;;
16826;SDS011;8530;49.540;8.576;2023-02-11T02:12:03;44.07;;;29.13;;
16826;SDS011;8530;49.540;8.576;2023-02-11T02:14:30;50.47;;;30.70;;
16826;SDS011;8530;49.540;8.576;2023-02-11T02:16:57;46.33;;;28.83;;
16826;SDS011;8530;49.540;8.576;2023-02-11T02:19:37;44.50;;;29.53;;
16826;SDS011;8530;49.540;8.576;2023-02-11T02:22:46;46.63;;;31.03;;
16826;SDS011;8530;49.540;8.576;2023-02-11T02:25:34;48.97;;;29.57;;
16826;SDS011;8530;49.540;8.576;2023-02-11T02:28:23;41.27;;;27.73;;
16826;SDS011;8530;49.540;8.576;2023-02-11T02:31:23;44.37;;;31.63;;
16826;SDS011;8530;49.540;8.576;2023-02-11T02:34:02;40.67;;;27.60;;
16826;SDS011;8530;49.540;8.576;2023-02-11T02:36:36;46.47;;;30.43;;
16826;SDS011;8530;49.540;8.576;2023-02-11T02:39:07;48.83;;;31.37;;
16826;SDS011;8530;49.540;8.576;2023-02-11T02:41:38;52.73;;;32.50;;
16826;SDS011;8530;49.540;8.576;2023-02-11T02:44:06;45.00;;;30.33;;
16826;SDS011;8530;49.540;8.576;2023-02-11T02:46:34;40.50;;;29.07;;
16826;SDS011;8530;49.540;8.576;2023-02-11T02:49:02;44.77;;;29.53;;
16826;SDS011;8530;49.540;8.576;2023-02-11T02:51:43;51.37;;;31.90;;
16826;SDS011;8530;49.540;8.576;2023-02-11T02:54:35;39.47;;;27.80;;
16826;SDS011;8530;49.540;8.576;2023-02-11T02:57:17;47.50;;;29.90;;
16826;SDS011;8530;49.540;8.576;2023-02-11T02:59:58;47.07;;;31.00;;
16826;SDS011;8530;49.540;8.576;2023-02-11T03:02:32;48.00;;;30.37;;
16826;SDS011;8530;49.540;8.576;2023-02-11T03:05:07;44.10;;;28.63;;
16826;SDS011;8530;49.540;8.576;2023-02-11T03:07:42;43.93;;;31.07;;
16826;SDS011;8530;49.540;8.576;2023-02-11T03:10:14;43.27;;;29.77;;
16826;SDS011;8530;49.540;8.576;2023-02-11T03:12:46;50.43;;;32.80;;
16826;SDS011;8530;49.540;8.576;2023-02-11T03:15:14;47.43;;;30.73;;
16826;SDS011;8530;49.540;8.576;2023-02-11T03:17:43;44.77;;;31.40;;
16826;SDS011;8530;49.540;8.576;2023-02-11T03:20:15;43.90;;;28.63;;
16826;SDS011;8530;49.540;8.576;2023-02-11T03:22:46;42.20;;;27.43;;
16826;SDS011;8530;49.540;8.576;2023-02-11T03:25:15;44.80;;;29.80;;
16826;SDS011;8530;49.540;8.576;2023-02-11T03:27:44;40.27;;;28.20;;
16826;SDS011;8530;49.540;8.576;2023-02-11T03:30:16;48.77;;;31.27;;
16826;SDS011;8530;49.540;8.576;2023-02-11T03:32:48;45.97;;;28.63;;
16826;SDS011;8530;49.540;8.576;2023-02-11T03:35:18;45.90;;;33.00;;
16826;SDS011;8530;49.540;8.576;2023-02-11T03:37:49;47.50;;;31.30;;
16826;SDS011;8530;49.540;8.576;2023-02-11T03:40:20;48.00;;;31.90;;
16826;SDS011;8530;49.540;8.576;2023-02-11T03:42:50;51.40;;;31.20;;
16826;SDS011;8530;49.540;8.576;2023-02-11T03:45:21;43.90;;;30.97;;
16826;SDS011;8530;49.540;8.576;2023-02-11T03:47:51;47.53;;;30.70;;
16826;SDS011;8530;49.540;8.576;2023-02-11T03:50:22;42.33;;;29.93;;
16826;SDS011;8530;49.540;8.576;2023-02-11T03:52:51;47.03;;;31.60;;
16826;SDS011;8530;49.540;8.576;2023-02-11T03:55:20;45.67;;;33.70;;
16826;SDS011;8530;49.540;8.576;2023-02-11T03:57:49;49.87;;;32.83;;
16826;SDS011;8530;49.540;8.576;2023-02-11T04:00:17;47.00;;;31.57;;
16826;SDS011;8530;49.540;8.576;2023-02-11T04:02:44;44.37;;;28.70;;
16826;SDS011;8530;49.540;8.576;2023-02-11T04:05:13;44.63;;;29.33;;
16826;SDS011;8530;49.540;8.576;2023-02-11T04:07:42;47.73;;;30.70;;
16826;SDS011;8530;49.540;8.576;2023-02-11T04:10:09;49.87;;;30.17;;
16826;SDS011;8530;49.540;8.576;2023-02-11T04:12:37;54.73;;;31.90;;
16826;SDS011;8530;49.540;8.576;2023-02-11T04:15:04;45.33;;;31.47;;
16826;SDS011;8530;49.540;8.576;2023-02-11T04:17:31;46.07;;;30.37;;
16826;SDS011;8530;49.540;8.576;2023-02-11T04:19:58;47.93;;;32.00;;
16826;SDS011;8530;49.540;8.576;2023-02-11T04:22:25;52.33;;;34.20;;
16826;SDS011;8530;49.540;8.576;2023-02-11T04:24:53;46.90;;;30.47;;
16826;SDS011;8530;49.540;8.576;2023-02-11T04:27:20;47.00;;;32.30;;
16826;SDS011;8530;49.540;8.576;2023-02-11T04:29:46;48.83;;;32.30;;
16826;SDS011;8530;49.540;8.576;2023-02-11T04:32:13;52.13;;;31.30;;
16826;SDS011;8530;49.540;8.576;2023-02-11T04:34:40;46.17;;;32.33;;
16826;SDS011;8530;49.540;8.576;2023-02-11T04:37:07;52.97;;;33.30;;
16826;SDS011;8530;49.540;8.576;2023-02-11T04:39:34;48.13;;;31.37;;
16826;SDS011;8530;49.540;8.576;2023-02-11T04:42:02;59.27;;;31.00;;
16826;SDS011;8530;49.540;8.576;2023-02-11T04:44:29;51.40;;;33.03;;
16826;SDS011;8530;49.540;8.576;2023-02-11T04:46:57;48.10;;;32.10;;
16826;SDS011;8530;49.540;8.576;2023-02-11T04:49:23;54.50;;;33.77;;
16826;SDS011;8530;49.540;8.576;2023-02-11T04:51:50;49.93;;;31.50;;
16826;SDS011;8530;49.540;8.576;2023-02-11T04:54:17;43.83;;;31.47;;
16826;SDS011;8530;49.540;8.576;2023-02-11T04:56:44;46.67;;;31.33;;
16826;SDS011;8530;49.540;8.576;2023-02-11T04:59:12;51.33;;;33.30;;
16826;SDS011;8530;49.540;8.576;2023-02-11T05:01:39;43.03;;;31.97;;
16826;SDS011;8530;49.540;8.576;2023-02-11T05:04:06;49.00;;;33.67;;
16826;SDS011;8530;49.540;8.576;2023-02-11T05:06:33;47.87;;;33.10;;
16826;SDS011;8530;49.540;8.576;2023-02-11T05:08:59;48.43;;;32.17;;
16826;SDS011;8530;49.540;8.576;2023-02-11T05:11:26;45.73;;;31.47;;
16826;SDS011;8530;49.540;8.576;2023-02-11T05:13:53;49.27;;;32.20;;
16826;SDS011;8530;49.540;8.576;2023-02-11T05:16:21;47.30;;;33.20;;
16826;SDS011;8530;49.540;8.576;2023-02-11T05:18:48;47.50;;;32.07;;
16826;SDS011;8530;49.540;8.576;2023-02-11T05:21:15;48.03;;;31.87;;
16826;SDS011;8530;49.540;8.576;2023-02-11T05:23:43;49.97;;;32.20;;
16826;SDS011;8530;49.540;8.576;2023-02-11T05:26:10;48.17;;;34.97;;
16826;SDS011;8530;49.540;8.576;2023-02-11T05:28:38;48.30;;;32.37;;
16826;SDS011;8530;49.540;8.576;2023-02-11T05:31:05;55.07;;;35.33;;
16826;SDS011;8530;49.540;8.576;2023-02-11T05:33:34;56.17;;;33.90;;
16826;SDS011;8530;49.540;8.576;2023-02-11T05:36:00;52.33;;;33.57;;
16826;SDS011;8530;49.540;8.576;2023-02-11T05:38:28;45.93;;;33.13;;
16826;SDS011;8530;49.540;8.576;2023-02-11T05:40:55;47.33;;;33.90;;
16826;SDS011;8530;49.540;8.576;2023-02-11T05:43:22;50.43;;;33.20;;
16826;SDS011;8530;49.540;8.576;2023-02-11T05:45:50;44.00;;;32.77;;
16826;SDS011;8530;49.540;8.576;2023-02-11T05:48:16;49.13;;;32.80;;
16826;SDS011;8530;49.540;8.576;2023-02-11T05:50:44;50.43;;;33.47;;
16826;SDS011;8530;49.540;8.576;2023-02-11T05:53:11;47.83;;;32.40;;
16826;SDS011;8530;49.540;8.576;2023-02-11T05:55:38;39.07;;;28.37;;
16826;SDS011;8530;49.540;8.576;2023-02-11T05:58:05;48.93;;;29.87;;
16826;SDS011;8530;49.540;8.576;2023-02-11T06:00:32;43.33;;;30.70;;
16826;SDS011;8530;49.540;8.576;2023-02-11T06:03:00;50.13;;;34.40;;
16826;SDS011;8530;49.540;8.576;2023-02-11T06:05:28;42.00;;;29.73;;
16826;SDS011;8530;49.540;8.576;2023-02-11T06:07:56;46.47;;;31.13;;
16826;SDS011;8530;49.540;8.576;2023-02-11T06:10:23;48.73;;;32.67;;
16826;SDS011;8530;49.540;8.576;2023-02-11T06:12:50;50.77;;;33.47;;
16826;SDS011;8530;49.540;8.576;2023-02-11T06:15:17;48.37;;;31.57;;
16826;SDS011;8530;49.540;8.576;2023-02-11T06:17:44;44.33;;;31.33;;
16826;SDS011;8530;49.540;8.576;2023-02-11T06:20:11;42.50;;;29.83;;
16826;SDS011;8530;49.540;8.576;2023-02-11T06:22:37;46.03;;;31.50;;
16826;SDS011;8530;49.540;8.576;2023-02-11T06:25:06;39.90;;;29.00;;
16826;SDS011;8530;49.540;8.576;2023-02-11T06:27:33;43.60;;;30.90;;
16826;SDS011;8530;49.540;8.576;2023-02-11T06:30:00;41.00;;;29.23;;
16826;SDS011;8530;49.540;8.576;2023-02-11T06:32:27;47.67;;;30.67;;
16826;SDS011;8530;49.540;8.576;2023-02-11T06:34:54;42.67;;;31.47;;
16826;SDS011;8530;49.540;8.576;2023-02-11T06:37:20;45.77;;;31.30;;
16826;SDS011;8530;49.540;8.576;2023-02-11T06:39:48;56.37;;;34.97;;
16826;SDS011;8530;49.540;8.576;2023-02-11T06:42:16;47.27;;;31.87;;
16826;SDS011;8530;49.540;8.576;2023-02-11T06:44:42;49.87;;;32.50;;
16826;SDS011;8530;49.540;8.576;2023-02-11T06:47:10;47.90;;;32.50;;
16826;SDS011;8530;49.540;8.576;2023-02-11T06:49:37;48.37;;;30.60;;
16826;SDS011;8530;49.540;8.576;2023-02-11T06:52:04;46.90;;;31.80;;
16826;SDS011;8530;49.540;8.576;2023-02-11T06:54:31;45.30;;;33.63;;
16826;SDS011;8530;49.540;8.576;2023-02-11T06:56:57;43.90;;;31.77;;
16826;SDS011;8530;49.540;8.576;2023-02-11T06:59:25;42.87;;;29.63;;
16826;SDS011;8530;49.540;8.576;2023-02-11T07:01:52;41.30;;;30.87;;
16826;SDS011;8530;49.540;8.576;2023-02-11T07:04:19;42.13;;;31.20;;
16826;SDS011;8530;49.540;8.576;2023-02-11T07:06:46;47.20;;;32.43;;
16826;SDS011;8530;49.540;8.576;2023-02-11T07:09:13;42.63;;;31.67;;
16826;SDS011;8530;49.540;8.576;2023-02-11T07:11:40;43.97;;;29.77;;
16826;SDS011;8530;49.540;8.576;2023-02-11T07:14:06;43.43;;;30.53;;
16826;SDS011;8530;49.540;8.576;2023-02-11T07:16:35;37.57;;;29.57;;
16826;SDS011;8530;49.540;8.576;2023-02-11T07:19:03;42.53;;;28.67;;
16826;SDS011;8530;49.540;8.576;2023-02-11T07:21:29;44.07;;;30.87;;
16826;SDS011;8530;49.540;8.576;2023-02-11T07:23:56;41.73;;;29.67;;
16826;SDS011;8530;49.540;8.576;2023-02-11T07:26:23;43.10;;;31.13;;
16826;SDS011;8530;49.540;8.576;2023-02-11T07:28:51;41.53;;;30.03;;
16826;SDS011;8530;49.540;8.576;2023-02-11T07:31:18;46.73;;;28.80;;
16826;SDS011;8530;49.540;8.576;2023-02-11T07:33:48;50.07;;;31.37;;
16826;SDS011;8530;49.540;8.576;2023-02-11T07:36:16;40.23;;;28.67;;
16826;SDS011;8530;49.540;8.576;2023-02-11T07:38:43;39.60;;;27.90;;
16826;SDS011;8530;49.540;8.576;2023-02-11T07:41:10;48.83;;;31.50;;
16826;SDS011;8530;49.540;8.576;2023-02-11T07:43:38;45.57;;;31.80;;
16826;SDS011;8530;49.540;8.576;2023-02-11T07:46:07;40.20;;;28.90;;
16826;SDS011;8530;49.540;8.576;2023-02-11T07:48:35;39.03;;;28.13;;
16826;SDS011;8530;49.540;8.576;2023-02-11T07:51:07;40.63;;;27.70;;
16826;SDS011;8530;49.540;8.576;2023-02-11T07:53:35;44.97;;;29.37;;
16826;SDS011;8530;49.540;8.576;2023-02-11T07:56:02;41.07;;;29.03;;
16826;SDS011;8530;49.540;8.576;2023-02-11T07:58:29;42.63;;;29.90;;
16826;SDS011;8530;49.540;8.576;2023-02-11T08:00:59;42.17;;;29.00;;
16826;SDS011;8530;49.540;8.576;2023-02-11T08:03:27;38.50;;;28.30;;
16826;SDS011;8530;49.540;8.576;2023-02-11T08:05:53;37.47;;;28.47;;
16826;SDS011;8530;49.540;8.576;2023-02-11T08:08:21;43.00;;;27.60;;
16826;SDS011;8530;49.540;8.576;2023-02-11T08:10:50;39.53;;;26.73;;
16826;SDS011;8530;49.540;8.576;2023-02-11T08:13:17;37.90;;;25.43;;
16826;SDS011;8530;49.540;8.576;2023-02-11T08:15:44;36.03;;;26.70;;
16826;SDS011;8530;49.540;8.576;2023-02-11T08:18:11;36.57;;;25.43;;
16826;SDS011;8530;49.540;8.576;2023-02-11T08:20:37;43.00;;;25.10;;
16826;SDS011;8530;49.540;8.576;2023-02-11T08:23:05;52.37;;;26.50;;
16826;SDS011;8530;49.540;8.576;2023-02-11T08:25:33;37.70;;;25.50;;
16826;SDS011;8530;49.540;8.576;2023-02-11T08:28:00;34.43;;;26.07;;
16826;SDS011;8530;49.540;8.576;2023-02-11T08:30:27;36.53;;;25.00;;
16826;SDS011;8530;49.540;8.576;2023-02-11T08:32:53;40.57;;;25.93;;
16826;SDS011;8530;49.540;8.576;2023-02-11T08:35:20;36.77;;;25.33;;
16826;SDS011;8530;49.540;8.576;2023-02-11T08:37:53;36.37;;;23.67;;
16826;SDS011;8530;49.540;8.576;2023-02-11T08:40:20;38.00;;;25.37;;
16826;SDS011;8530;49.540;8.576;2023-02-11T08:42:48;34.67;;;24.63;;
16826;SDS011;8530;49.540;8.576;2023-02-11T08:45:15;31.37;;;23.80;;
16826;SDS011;8530;49.540;8.576;2023-02-11T08:47:42;33.27;;;25.10;;
16826;SDS011;8530;49.540;8.576;2023-02-11T08:50:08;32.60;;;22.53;;
16826;SDS011;8530;49.540;8.576;2023-02-11T08:52:35;30.30;;;23.10;;
16826;SDS011;8530;49.540;8.576;2023-02-11T08:55:02;31.70;;;24.00;;
16826;SDS011;8530;49.540;8.576;2023-02-11T08:57:29;36.30;;;26.50;;
16826;SDS011;8530;49.540;8.576;2023-02-11T08:59:57;35.37;;;25.00;;
16826;SDS011;8530;49.540;8.576;2023-02-11T09:02:24;33.93;;;23.23;;
16826;SDS011;8530;49.540;8.576;2023-02-11T09:04:51;35.20;;;24.33;;
16826;SDS011;8530;49.540;8.576;2023-02-11T09:07:17;37.33;;;26.87;;
16826;SDS011;8530;49.540;8.576;2023-02-11T09:09:47;36.70;;;24.77;;
16826;SDS011;8530;49.540;8.576;2023-02-11T09:12:14;34.33;;;23.80;;
16826;SDS011;8530;49.540;8.576;2023-02-11T09:14:41;32.93;;;23.27;;
16826;SDS011;8530;49.540;8.576;2023-02-11T09:17:09;35.37;;;24.23;;
16826;SDS011;8530;49.540;8.576;2023-02-11T09:19:36;31.93;;;24.47;;
16826;SDS011;8530;49.540;8.576;2023-02-11T09:22:02;34.23;;;23.70;;
16826;SDS011;8530;49.540;8.576;2023-02-11T09:24:29;39.27;;;24.53;;
16826;SDS011;8530;49.540;8.576;2023-02-11T09:26:56;34.63;;;24.83;;
16826;SDS011;8530;49.540;8.576;2023-02-11T09:29:22;39.10;;;27.40;;
16826;SDS011;8530;49.540;8.576;2023-02-11T09:31:49;34.03;;;21.60;;
16826;SDS011;8530;49.540;8.576;2023-02-11T09:34:17;33.07;;;24.30;;
16826;SDS011;8530;49.540;8.576;2023-02-11T09:36:43;37.10;;;25.50;;
16826;SDS011;8530;49.540;8.576;2023-02-11T09:39:11;36.83;;;23.90;;
16826;SDS011;8530;49.540;8.576;2023-02-11T09:41:53;33.97;;;25.67;;
16826;SDS011;8530;49.540;8.576;2023-02-11T09:44:29;31.17;;;23.60;;
16826;SDS011;8530;49.540;8.576;2023-02-11T09:46:58;36.60;;;25.47;;
16826;SDS011;8530;49.540;8.576;2023-02-11T09:49:31;35.77;;;25.70;;
16826;SDS011;8530;49.540;8.576;2023-02-11T09:52:04;37.80;;;24.00;;
16826;SDS011;8530;49.540;8.576;2023-02-11T09:54:35;38.20;;;25.40;;
16826;SDS011;8530;49.540;8.576;2023-02-11T09:57:07;37.60;;;24.47;;
16826;SDS011;8530;49.540;8.576;2023-02-11T09:59:35;34.87;;;24.67;;
16826;SDS011;8530;49.540;8.576;2023-02-11T10:02:03;39.67;;;25.07;;
16826;SDS011;8530;49.540;8.576;2023-02-11T10:04:46;32.53;;;23.70;;
16826;SDS011;8530;49.540;8.576;2023-02-11T10:07:32;31.33;;;22.53;;
16826;SDS011;8530;49.540;8.576;2023-02-11T10:10:07;36.00;;;25.20;;
16826;SDS011;8530;49.540;8.576;2023-02-11T10:12:46;32.47;;;24.00;;
16826;SDS011;8530;49.540;8.576;2023-02-11T10:15:27;40.23;;;24.60;;
16826;SDS011;8530;49.540;8.576;2023-02-11T10:18:10;32.90;;;24.43;;
16826;SDS011;8530;49.540;8.576;2023-02-11T10:20:56;41.53;;;25.63;;
16826;SDS011;8530;49.540;8.576;2023-02-11T10:23:33;34.17;;;23.77;;
16826;SDS011;8530;49.540;8.576;2023-02-11T10:26:07;32.90;;;23.00;;
16826;SDS011;8530;49.540;8.576;2023-02-11T10:28:37;37.87;;;26.27;;
16826;SDS011;8530;49.540;8.576;2023-02-11T10:31:07;34.20;;;23.67;;
16826;SDS011;8530;49.540;8.576;2023-02-11T10:33:40;34.67;;;23.73;;
16826;SDS011;8530;49.540;8.576;2023-02-11T10:36:12;31.67;;;22.40;;
16826;SDS011;8530;49.540;8.576;2023-02-11T10:38:41;31.70;;;23.83;;
16826;SDS011;8530;49.540;8.576;2023-02-11T10:41:08;38.93;;;24.30;;
16826;SDS011;8530;49.540;8.576;2023-02-11T10:43:38;30.27;;;22.83;;
16826;SDS011;8530;49.540;8.576;2023-02-11T10:46:08;37.60;;;23.13;;
16826;SDS011;8530;49.540;8.576;2023-02-11T10:48:43;30.40;;;22.33;;
16826;SDS011;8530;49.540;8.576;2023-02-11T10:51:18;29.77;;;22.63;;
16826;SDS011;8530;49.540;8.576;2023-02-11T10:53:46;32.57;;;23.50;;
16826;SDS011;8530;49.540;8.576;2023-02-11T10:56:19;35.20;;;22.13;;
16826;SDS011;8530;49.540;8.576;2023-02-11T10:58:57;34.97;;;24.90;;
16826;SDS011;8530;49.540;8.576;2023-02-11T11:01:38;29.50;;;21.30;;
16826;SDS011;8530;49.540;8.576;2023-02-11T11:04:08;35.57;;;23.63;;
16826;SDS011;8530;49.540;8.576;2023-02-11T11:07:09;29.63;;;21.87;;
16826;SDS011;8530;49.540;8.576;2023-02-11T11:09:42;34.17;;;21.70;;
16826;SDS011;8530;49.540;8.576;2023-02-11T11:12:22;28.63;;;21.60;;
16826;SDS011;8530;49.540;8.576;2023-02-11T11:14:52;32.00;;;22.13;;
16826;SDS011;8530;49.540;8.576;2023-02-11T11:17:21;32.63;;;21.30;;
16826;SDS011;8530;49.540;8.576;2023-02-11T11:19:47;31.53;;;21.70;;
16826;SDS011;8530;49.540;8.576;2023-02-11T11:22:20;37.30;;;24.67;;
16826;SDS011;8530;49.540;8.576;2023-02-11T11:24:47;32.63;;;21.80;;
16826;SDS011;8530;49.540;8.576;2023-02-11T11:27:19;33.90;;;22.77;;
16826;SDS011;8530;49.540;8.576;2023-02-11T11:29:50;29.30;;;22.00;;
16826;SDS011;8530;49.540;8.576;2023-02-11T11:32:20;29.47;;;22.33;;
16826;SDS011;8530;49.540;8.576;2023-02-11T11:34:49;35.90;;;23.40;;
16826;SDS011;8530;49.540;8.576;2023-02-11T11:37:21;36.23;;;22.30;;
16826;SDS011;8530;49.540;8.576;2023-02-11T11:39:53;31.03;;;21.63;;
16826;SDS011;8530;49.540;8.576;2023-02-11T11:42:24;41.63;;;22.77;;
16826;SDS011;8530;49.540;8.576;2023-02-11T11:44:56;35.27;;;22.70;;
16826;SDS011;8530;49.540;8.576;2023-02-11T11:47:26;28.57;;;20.80;;
16826;SDS011;8530;49.540;8.576;2023-02-11T11:50:11;46.50;;;31.33;;
16826;SDS011;8530;49.540;8.576;2023-02-11T11:52:47;34.10;;;23.60;;
16826;SDS011;8530;49.540;8.576;2023-02-11T11:55:20;28.77;;;21.53;;
16826;SDS011;8530;49.540;8.576;2023-02-11T11:57:49;29.37;;;21.80;;
16826;SDS011;8530;49.540;8.576;2023-02-11T12:00:18;34.73;;;23.00;;
16826;SDS011;8530;49.540;8.576;2023-02-11T12:05:55;34.90;;;22.83;;
16826;SDS011;8530;49.540;8.576;2023-02-11T12:08:43;31.57;;;21.57;;
16826;SDS011;8530;49.540;8.576;2023-02-11T12:11:18;32.30;;;22.00;;
16826;SDS011;8530;49.540;8.576;2023-02-11T12:14:03;28.00;;;21.07;;
16826;SDS011;8530;49.540;8.576;2023-02-11T12:16:43;33.73;;;22.93;;
16826;SDS011;8530;49.540;8.576;2023-02-11T12:19:21;29.23;;;20.43;;
16826;SDS011;8530;49.540;8.576;2023-02-11T12:22:11;32.00;;;21.37;;
16826;SDS011;8530;49.540;8.576;2023-02-11T12:25:02;33.70;;;22.47;;
16826;SDS011;8530;49.540;8.576;2023-02-11T12:27:41;28.97;;;21.57;;
16826;SDS011;8530;49.540;8.576;2023-02-11T12:30:17;32.00;;;21.50;;
16826;SDS011;8530;49.540;8.576;2023-02-11T12:32:53;29.63;;;21.40;;
16826;SDS011;8530;49.540;8.576;2023-02-11T12:35:30;28.33;;;19.90;;
16826;SDS011;8530;49.540;8.576;2023-02-11T12:38:09;30.87;;;23.10;;
16826;SDS011;8530;49.540;8.576;2023-02-11T12:40:49;28.90;;;19.97;;
16826;SDS011;8530;49.540;8.576;2023-02-11T12:43:27;32.23;;;22.33;;
16826;SDS011;8530;49.540;8.576;2023-02-11T12:46:05;28.07;;;21.17;;
16826;SDS011;8530;49.540;8.576;2023-02-11T12:48:44;33.70;;;22.20;;
16826;SDS011;8530;49.540;8.576;2023-02-11T12:51:28;28.50;;;21.67;;
16826;SDS011;8530;49.540;8.576;2023-02-11T12:56:53;27.00;;;19.17;;
16826;SDS011;8530;49.540;8.576;2023-02-11T13:02:22;24.33;;;17.10;;
16826;SDS011;8530;49.540;8.576;2023-02-11T13:04:55;30.40;;;19.13;;
16826;SDS011;8530;49.540;8.576;2023-02-11T13:07:27;26.37;;;19.60;;
16826;SDS011;8530;49.540;8.576;2023-02-11T13:09:58;31.67;;;18.90;;
16826;SDS011;8530;49.540;8.576;2023-02-11T13:12:32;27.07;;;18.90;;
16826;SDS011;8530;49.540;8.576;2023-02-11T13:15:19;24.90;;;18.57;;
16826;SDS011;8530;49.540;8.576;2023-02-11T13:17:51;25.63;;;19.03;;
16826;SDS011;8530;49.540;8.576;2023-02-11T13:20:29;31.93;;;18.77;;
16826;SDS011;8530;49.540;8.576;2023-02-11T13:23:01;29.73;;;19.37;;
16826;SDS011;8530;49.540;8.576;2023-02-11T13:25:35;32.43;;;18.90;;
16826;SDS011;8530;49.540;8.576;2023-02-11T13:28:13;23.73;;;16.80;;
16826;SDS011;8530;49.540;8.576;2023-02-11T13:30:47;28.00;;;17.60;;
16826;SDS011;8530;49.540;8.576;2023-02-11T13:33:31;28.27;;;19.23;;
16826;SDS011;8530;49.540;8.576;2023-02-11T13:36:13;27.13;;;17.47;;
16826;SDS011;8530;49.540;8.576;2023-02-11T13:38:55;25.63;;;17.40;;
16826;SDS011;8530;49.540;8.576;2023-02-11T13:41:26;35.77;;;20.30;;
16826;SDS011;8530;49.540;8.576;2023-02-11T13:43:57;34.80;;;19.27;;
16826;SDS011;8530;49.540;8.576;2023-02-11T13:46:26;24.57;;;17.60;;
16826;SDS011;8530;49.540;8.576;2023-02-11T13:49:14;28.53;;;18.00;;
16826;SDS011;8530;49.540;8.576;2023-02-11T13:51:44;28.63;;;17.70;;
16826;SDS011;8530;49.540;8.576;2023-02-11T13:54:18;28.20;;;17.63;;
16826;SDS011;8530;49.540;8.576;2023-02-11T13:59:54;32.10;;;19.27;;
16826;SDS011;8530;49.540;8.576;2023-02-11T14:02:23;35.47;;;17.90;;
16826;SDS011;8530;49.540;8.576;2023-02-11T14:05:29;27.70;;;19.63;;
16826;SDS011;8530;49.540;8.576;2023-02-11T14:08:21;25.80;;;18.63;;
16826;SDS011;8530;49.540;8.576;2023-02-11T14:14:16;26.63;;;18.60;;
16826;SDS011;8530;49.540;8.576;2023-02-11T14:19:52;29.30;;;17.20;;
16826;SDS011;8530;49.540;8.576;2023-02-11T14:22:21;27.67;;;18.10;;
16826;SDS011;8530;49.540;8.576;2023-02-11T14:24:51;22.60;;;16.10;;
16826;SDS011;8530;49.540;8.576;2023-02-11T14:27:23;21.83;;;16.40;;
16826;SDS011;8530;49.540;8.576;2023-02-11T14:30:00;21.97;;;16.73;;
16826;SDS011;8530;49.540;8.576;2023-02-11T14:32:51;28.37;;;17.17;;
16826;SDS011;8530;49.540;8.576;2023-02-11T14:35:42;27.07;;;24.20;;
16826;SDS011;8530;49.540;8.576;2023-02-11T14:38:20;26.77;;;17.77;;
16826;SDS011;8530;49.540;8.576;2023-02-11T14:40:53;26.77;;;15.10;;
16826;SDS011;8530;49.540;8.576;2023-02-11T14:43:29;22.70;;;14.97;;
16826;SDS011;8530;49.540;8.576;2023-02-11T14:46:01;22.57;;;15.60;;
16826;SDS011;8530;49.540;8.576;2023-02-11T14:48:30;23.03;;;15.33;;
16826;SDS011;8530;49.540;8.576;2023-02-11T14:51:00;21.47;;;14.37;;
16826;SDS011;8530;49.540;8.576;2023-02-11T14:53:31;21.07;;;14.70;;
16826;SDS011;8530;49.540;8.576;2023-02-11T14:55:59;26.23;;;15.67;;
16826;SDS011;8530;49.540;8.576;2023-02-11T14:58:27;22.57;;;15.00;;
16826;SDS011;8530;49.540;8.576;2023-02-11T15:00:55;25.00;;;15.97;;
16826;SDS011;8530;49.540;8.576;2023-02-11T15:03:27;26.87;;;16.87;;
16826;SDS011;8530;49.540;8.576;2023-02-11T15:06:02;28.80;;;17.03;;
16826;SDS011;8530;49.540;8.576;2023-02-11T15:08:32;22.77;;;15.43;;
16826;SDS011;8530;49.540;8.576;2023-02-11T15:11:02;24.07;;;14.87;;
16826;SDS011;8530;49.540;8.576;2023-02-11T15:13:35;25.60;;;17.30;;